Terminal Aerodrome Forecast
Issued by NWS Rapid City, SD

Home | Current Version | Previous Version | Text Only | Print | Product List | Glossary Off
Versions: 1 2 3 4 5 6 7 8 9 10 11 12 13 14 15 16

000
FTUS43 KUNR 222100 AAA
TAFRAP
TAF AMD
KRAP 222126Z 2221/2318 16015G20KT P6SM SCT110 BKN200
     FM222300 24013KT P6SM BKN100
     FM230100 15010KT P6SM BKN150
     FM231400 32025G35KT P6SM OVC150=

USA.gov is the U.S. government's official web portal to all federal, state and local government web resources and services.